createdAt,value
2023-11-02T00:01:34.184Z,9.44
2023-11-02T00:04:00.877Z,9.40
2023-11-02T00:06:38.782Z,9.32
2023-11-02T00:09:12.119Z,9.30
2023-11-02T00:12:01.255Z,9.30
2023-11-02T00:14:34.953Z,9.29
2023-11-02T00:17:02.046Z,9.22
2023-11-02T00:19:38.714Z,9.21
2023-11-02T00:22:07.836Z,9.09
2023-11-02T00:24:41.375Z,9.01
2023-11-02T00:27:09.162Z,8.92
2023-11-02T00:29:35.633Z,8.87
2023-11-02T00:32:02.209Z,8.88
2023-11-02T00:34:28.784Z,8.79
2023-11-02T00:36:56.963Z,8.75
2023-11-02T00:39:23.488Z,8.76
2023-11-02T00:41:50.999Z,8.73
2023-11-02T00:44:19.433Z,8.73
2023-11-02T00:46:46.931Z,8.76
2023-11-02T00:49:30.743Z,8.87
2023-11-02T00:51:59.767Z,8.77
2023-11-02T00:54:44.598Z,8.82
2023-11-02T00:57:15.602Z,8.76
2023-11-02T00:59:43.782Z,8.80
2023-11-02T01:02:10.784Z,8.72
2023-11-02T01:04:43.433Z,8.67
2023-11-02T01:07:13.940Z,8.67
2023-11-02T01:09:51.595Z,8.77
2023-11-02T01:12:23.799Z,8.75
2023-11-02T01:14:50.920Z,8.72
2023-11-02T01:17:32.178Z,8.78
2023-11-02T01:20:01.710Z,8.72
2023-11-02T01:22:30.954Z,8.61
2023-11-02T01:25:10.736Z,8.53
2023-11-02T01:27:37.195Z,8.49
2023-11-02T01:30:29.119Z,8.52
2023-11-02T01:32:55.953Z,8.46
2023-11-02T01:35:38.753Z,8.39
2023-11-02T01:38:05.202Z,8.37
2023-11-02T01:40:37.997Z,8.37
2023-11-02T01:43:12.743Z,8.39
2023-11-02T01:45:42.528Z,8.36
2023-11-02T01:48:30.347Z,8.33
2023-11-02T01:51:03.980Z,8.29
2023-11-02T01:54:13.038Z,8.29
2023-11-02T01:56:39.454Z,8.33
2023-11-02T01:59:12.242Z,8.39
2023-11-02T02:01:46.825Z,8.32
2023-11-02T02:04:17.048Z,8.37
2023-11-02T02:07:09.020Z,8.33
2023-11-02T02:09:53.936Z,8.26
2023-11-02T02:12:55.876Z,8.20
2023-11-02T02:15:28.088Z,8.21
2023-11-02T02:18:06.426Z,8.37
2023-11-02T02:20:35.178Z,8.24
2023-11-02T02:23:16.645Z,8.31
2023-11-02T02:25:52.081Z,8.29
2023-11-02T02:28:33.954Z,8.29
2023-11-02T02:31:22.234Z,8.27
2023-11-02T02:34:19.393Z,8.19
2023-11-02T02:36:54.718Z,8.14
2023-11-02T02:39:23.842Z,8.13
2023-11-02T02:41:59.233Z,8.09
2023-11-02T02:44:28.228Z,7.99
2023-11-02T02:46:55.290Z,7.95
2023-11-02T02:49:24.299Z,7.91
2023-11-02T02:51:53.176Z,7.87
2023-11-02T02:54:22.467Z,7.79
2023-11-02T02:56:50.954Z,7.75
2023-11-02T02:59:19.034Z,7.72
2023-11-02T03:01:48.491Z,7.73
2023-11-02T03:04:18.429Z,7.76
2023-11-02T03:06:48.611Z,7.74
2023-11-02T03:09:17.795Z,7.82
2023-11-02T03:11:46.113Z,7.80
2023-11-02T03:14:15.142Z,7.80
2023-11-02T03:16:44.348Z,7.80
2023-11-02T03:19:38.943Z,7.78
2023-11-02T03:22:05.843Z,7.77
2023-11-02T03:24:45.243Z,7.68
2023-11-02T03:27:18.011Z,7.66
2023-11-02T03:29:53.227Z,7.68
2023-11-02T03:32:29.541Z,7.67
2023-11-02T03:35:31.603Z,7.72
2023-11-02T03:38:27.551Z,7.67
2023-11-02T03:41:16.138Z,7.59
2023-11-02T03:43:57.218Z,7.63
2023-11-02T03:46:48.360Z,7.55
2023-11-02T03:49:28.023Z,7.57
2023-11-02T03:52:11.062Z,7.58
2023-11-02T03:54:50.199Z,7.58
2023-11-02T03:57:28.175Z,7.58
2023-11-02T04:00:10.624Z,7.52
2023-11-02T04:02:54.906Z,7.52
2023-11-02T04:05:23.462Z,7.52
2023-11-02T04:07:57.776Z,7.50
2023-11-02T04:10:27.330Z,7.55
2023-11-02T04:13:04.854Z,7.54
2023-11-02T04:15:32.205Z,7.58
2023-11-02T04:18:00.293Z,7.45
2023-11-02T04:20:28.015Z,7.48
2023-11-02T04:22:54.796Z,7.41
2023-11-02T04:25:21.393Z,7.34
2023-11-02T04:27:47.956Z,7.42
2023-11-02T04:30:16.436Z,7.45
2023-11-02T04:32:43.973Z,7.40
2023-11-02T04:35:11.951Z,7.37
2023-11-02T04:37:38.928Z,7.45
2023-11-02T04:40:08.693Z,7.33
2023-11-02T04:42:35.655Z,7.39
2023-11-02T04:45:03.459Z,7.41
2023-11-02T04:47:30.104Z,7.35
2023-11-02T04:49:56.697Z,7.31
2023-11-02T04:52:24.285Z,7.35
2023-11-02T04:54:50.914Z,7.43
2023-11-02T04:57:17.550Z,7.42
2023-11-02T04:59:44.135Z,7.43
2023-11-02T05:02:12.192Z,7.44
2023-11-02T05:04:39.292Z,7.49
2023-11-02T05:07:07.147Z,7.44
2023-11-02T05:09:33.636Z,7.58
2023-11-02T05:12:00.135Z,7.48
2023-11-02T05:14:26.586Z,7.47
2023-11-02T05:16:53.045Z,7.46
2023-11-02T05:19:19.542Z,7.48
2023-11-02T05:21:46.021Z,7.50
2023-11-02T05:24:13.152Z,7.56
2023-11-02T05:26:40.840Z,7.60
2023-11-02T05:29:07.567Z,7.60
2023-11-02T05:31:34.064Z,7.59
2023-11-02T05:34:00.569Z,7.65
2023-11-02T05:36:27.105Z,7.67
2023-11-02T05:38:53.711Z,7.68
2023-11-02T05:41:21.518Z,7.60
2023-11-02T05:43:47.979Z,7.59
2023-11-02T05:46:14.561Z,7.57
2023-11-02T05:48:41.062Z,7.50
2023-11-02T05:51:07.679Z,7.51
2023-11-02T05:53:34.173Z,7.50
2023-11-02T05:56:01.075Z,7.54
2023-11-02T05:58:28.021Z,7.53
2023-11-02T06:00:55.521Z,7.58
2023-11-02T06:03:22.066Z,7.66
2023-11-02T06:05:48.601Z,7.67
2023-11-02T06:08:15.023Z,7.70
2023-11-02T06:10:41.528Z,7.80
2023-11-02T06:13:08.038Z,7.76
2023-11-02T06:15:34.548Z,7.73
2023-11-02T06:18:02.605Z,7.76
2023-11-02T06:20:29.611Z,7.82
2023-11-02T06:22:56.157Z,7.95
2023-11-02T06:25:22.651Z,7.92
2023-11-02T06:27:49.089Z,7.88
2023-11-02T06:30:15.627Z,8.05
2023-11-02T06:32:42.163Z,8.05
2023-11-02T06:35:09.976Z,7.99
2023-11-02T06:37:58.761Z,8.04
2023-11-02T06:40:29.301Z,7.99
2023-11-02T06:43:00.105Z,8.06
2023-11-02T06:45:26.911Z,7.95
2023-11-02T06:47:53.723Z,7.94
2023-11-02T06:50:21.001Z,7.92
2023-11-02T06:52:47.492Z,7.93
2023-11-02T06:55:14.036Z,7.99
2023-11-02T06:57:40.772Z,8.01
2023-11-02T07:00:10.577Z,8.04
2023-11-02T07:02:38.363Z,8.08
2023-11-02T07:05:05.940Z,8.16
2023-11-02T07:07:40.099Z,8.19
2023-11-02T07:10:08.251Z,8.23
2023-11-02T07:12:34.806Z,8.26
2023-11-02T07:15:01.437Z,8.30
2023-11-02T07:17:28.260Z,8.43
2023-11-02T07:19:55.035Z,8.42
2023-11-02T07:22:21.497Z,8.37
2023-11-02T07:24:48.014Z,8.36
2023-11-02T07:27:14.541Z,8.40
2023-11-02T07:29:40.953Z,8.37
2023-11-02T07:32:09.725Z,8.36
2023-11-02T07:34:36.314Z,8.31
2023-11-02T07:37:02.839Z,8.32
2023-11-02T07:39:29.345Z,8.33
2023-11-02T07:41:55.800Z,8.44
2023-11-02T07:44:22.250Z,8.45
2023-11-02T07:46:49.111Z,8.51
2023-11-02T07:49:15.582Z,8.60
2023-11-02T07:51:42.116Z,8.58
2023-11-02T07:54:08.915Z,8.51
2023-11-02T07:56:35.372Z,8.67
2023-11-02T07:59:01.863Z,8.84
2023-11-02T08:01:29.238Z,8.87
2023-11-02T08:03:56.216Z,8.82
2023-11-02T08:06:24.217Z,8.80
2023-11-02T08:08:52.708Z,8.83
2023-11-02T08:11:19.299Z,8.86
2023-11-02T08:13:47.054Z,8.93
2023-11-02T08:16:13.689Z,9.05
2023-11-02T08:18:40.174Z,9.08
2023-11-02T08:21:11.225Z,9.07
2023-11-02T08:23:37.741Z,9.12
2023-11-02T08:26:04.486Z,9.11
2023-11-02T08:28:32.960Z,9.24
2023-11-02T08:31:00.459Z,9.24
2023-11-02T08:33:27.020Z,9.19
2023-11-02T08:35:53.618Z,9.13
2023-11-02T08:38:20.094Z,9.10
2023-11-02T08:40:46.797Z,9.07
2023-11-02T08:43:14.186Z,9.09
2023-11-02T08:45:40.842Z,9.04
2023-11-02T08:48:08.287Z,8.96
2023-11-02T08:50:37.165Z,8.89
2023-11-02T08:53:05.826Z,8.86
2023-11-02T08:55:32.570Z,8.71
2023-11-02T08:57:59.080Z,8.60
2023-11-02T09:00:25.808Z,8.65
2023-11-02T09:02:52.438Z,8.72
2023-11-02T09:05:19.203Z,8.64
2023-11-02T09:07:45.770Z,8.62
2023-11-02T09:10:12.226Z,8.57
2023-11-02T09:12:39.000Z,8.54
2023-11-02T09:15:06.005Z,8.60
2023-11-02T09:17:32.582Z,8.47
2023-11-02T09:19:59.308Z,8.38
2023-11-02T09:22:28.019Z,8.36
2023-11-02T09:24:54.875Z,8.30
2023-11-02T09:27:21.412Z,8.41
2023-11-02T09:29:47.921Z,8.37
2023-11-02T09:32:14.465Z,8.38
2023-11-02T09:34:40.989Z,8.43
2023-11-02T09:37:07.502Z,8.44
2023-11-02T09:39:34.181Z,8.44
2023-11-02T09:42:02.259Z,8.40
2023-11-02T09:44:29.710Z,8.36
2023-11-02T09:46:56.347Z,8.38
2023-11-02T09:49:23.177Z,8.28
2023-11-02T09:51:49.895Z,8.21
2023-11-02T09:54:16.602Z,8.28
2023-11-02T09:56:44.095Z,8.30
2023-11-02T09:59:11.178Z,8.26
2023-11-02T10:01:39.443Z,8.35
2023-11-02T10:04:06.429Z,8.36
2023-11-02T10:06:33.795Z,8.47
2023-11-02T10:09:00.397Z,8.44
2023-11-02T10:11:28.662Z,8.59
2023-11-02T10:13:57.288Z,8.64
2023-11-02T10:16:25.010Z,8.47
2023-11-02T10:18:51.989Z,8.46
2023-11-02T10:21:20.939Z,8.67
2023-11-02T10:23:57.165Z,8.69
2023-11-02T10:26:30.077Z,8.68
2023-11-02T10:28:59.342Z,8.72
2023-11-02T10:31:28.677Z,8.74
2023-11-02T10:33:55.460Z,8.69
2023-11-02T10:36:22.066Z,8.70
2023-11-02T10:38:48.646Z,8.72
2023-11-02T10:41:18.206Z,8.79
2023-11-02T10:43:49.669Z,8.68
2023-11-02T10:46:18.052Z,8.58
2023-11-02T10:48:47.546Z,8.64
2023-11-02T10:51:22.083Z,8.69
2023-11-02T10:54:02.035Z,8.81
2023-11-02T10:56:39.847Z,8.84
2023-11-02T10:59:08.926Z,8.89
2023-11-02T11:01:37.399Z,9.03
2023-11-02T11:04:05.353Z,8.95
2023-11-02T11:06:33.872Z,9.02
2023-11-02T11:09:01.608Z,9.02
2023-11-02T11:11:30.644Z,8.98
2023-11-02T11:13:57.472Z,9.06
2023-11-02T11:16:25.351Z,9.25
2023-11-02T11:18:53.679Z,9.30
2023-11-02T11:21:22.285Z,9.23
2023-11-02T11:23:49.752Z,9.26
2023-11-02T11:26:17.288Z,9.23
2023-11-02T11:28:43.927Z,9.24
2023-11-02T11:31:48.247Z,9.26
2023-11-02T11:34:14.696Z,9.36
2023-11-02T11:36:41.193Z,9.35
2023-11-02T11:39:34.161Z,9.34
2023-11-02T11:42:02.002Z,9.43
2023-11-02T11:44:28.516Z,9.46
2023-11-02T11:46:56.864Z,9.36
2023-11-02T11:49:40.875Z,9.30
2023-11-02T11:52:26.510Z,9.29
2023-11-02T11:54:53.783Z,9.27
2023-11-02T11:57:53.480Z,9.28
2023-11-02T12:00:21.333Z,9.28
2023-11-02T12:02:54.057Z,9.28
2023-11-02T12:05:45.896Z,9.23
2023-11-02T12:08:13.316Z,9.14
2023-11-02T12:10:55.096Z,9.06
2023-11-02T12:13:22.027Z,9.15
2023-11-02T12:15:58.302Z,9.08
2023-11-02T12:18:33.976Z,9.03
2023-11-02T12:21:04.800Z,9.08
2023-11-02T12:23:32.969Z,8.99
2023-11-02T12:26:01.353Z,9.03
2023-11-02T12:28:27.884Z,8.93
2023-11-02T12:30:55.175Z,8.85
2023-11-02T12:33:22.915Z,8.85
2023-11-02T12:35:54.332Z,8.81
2023-11-02T12:38:37.049Z,8.70
2023-11-02T12:41:05.951Z,8.69
2023-11-02T12:43:37.831Z,8.69
2023-11-02T12:46:07.841Z,8.61
2023-11-02T12:48:38.194Z,8.67
2023-11-02T12:51:16.855Z,8.69
2023-11-02T12:53:44.960Z,8.69
2023-11-02T12:56:13.160Z,8.64
2023-11-02T12:58:40.540Z,8.68
2023-11-02T13:01:07.090Z,8.65
2023-11-02T13:03:33.816Z,8.66
2023-11-02T13:06:00.838Z,8.69
2023-11-02T13:08:27.386Z,8.68
2023-11-02T13:10:54.307Z,8.69
2023-11-02T13:13:21.310Z,8.69
2023-11-02T13:15:52.458Z,8.71
2023-11-02T13:18:19.452Z,8.72
2023-11-02T13:20:49.333Z,8.73
2023-11-02T13:23:15.849Z,8.76
2023-11-02T13:25:42.310Z,8.83
2023-11-02T13:28:09.944Z,8.88
2023-11-02T13:30:39.652Z,8.97
2023-11-02T13:33:06.626Z,8.92
2023-11-02T13:35:33.183Z,9.02
2023-11-02T13:37:59.835Z,8.91
2023-11-02T13:40:28.264Z,8.91
2023-11-02T13:42:56.363Z,8.95
2023-11-02T13:45:23.326Z,8.92
2023-11-02T13:47:51.054Z,8.97
2023-11-02T13:50:17.602Z,8.93
2023-11-02T13:52:44.975Z,8.92
2023-11-02T13:55:11.818Z,8.94
2023-11-02T13:57:39.514Z,8.89
2023-11-02T14:00:06.696Z,8.98
2023-11-02T14:02:33.346Z,8.95
2023-11-02T14:05:02.545Z,8.88
2023-11-02T14:07:30.318Z,8.84
2023-11-02T14:09:57.233Z,8.84
2023-11-02T14:12:24.396Z,8.90
2023-11-02T14:14:52.008Z,8.91
2023-11-02T14:17:21.442Z,8.95
2023-11-02T14:19:49.026Z,8.95
2023-11-02T14:22:17.110Z,8.98
2023-11-02T14:24:44.713Z,8.99
2023-11-02T14:27:11.263Z,8.87
2023-11-02T14:29:37.761Z,8.84
2023-11-02T14:32:04.516Z,8.85
2023-11-02T14:34:31.022Z,8.85
2023-11-02T14:36:58.985Z,8.80
2023-11-02T14:39:25.604Z,8.74
2023-11-02T14:41:52.152Z,8.74
2023-11-02T14:44:18.702Z,8.80
2023-11-02T14:46:45.277Z,8.74
2023-11-02T14:49:12.316Z,8.81
2023-11-02T14:51:38.903Z,8.87
2023-11-02T14:54:05.467Z,8.87
2023-11-02T14:56:31.934Z,8.90
2023-11-02T14:58:58.360Z,8.95
2023-11-02T15:01:25.345Z,8.97
2023-11-02T15:03:51.921Z,8.99
2023-11-02T15:06:20.264Z,8.91
2023-11-02T15:11:21.669Z,8.76
2023-11-02T15:13:48.567Z,8.64
2023-11-02T15:16:15.554Z,8.63
2023-11-02T15:18:43.074Z,8.70
2023-11-02T15:21:13.189Z,8.68
2023-11-02T15:23:40.650Z,8.60
2023-11-02T15:26:07.614Z,8.76
2023-11-02T15:28:34.112Z,8.78
2023-11-02T15:31:02.038Z,8.68
2023-11-02T15:33:30.486Z,8.77
2023-11-02T15:35:57.217Z,8.75
2023-11-02T15:38:23.736Z,8.75
2023-11-02T15:40:50.254Z,8.69
2023-11-02T15:43:16.741Z,8.63
2023-11-02T15:45:43.414Z,8.63
2023-11-02T15:48:10.014Z,8.70
2023-11-02T15:50:37.127Z,8.66
2023-11-02T15:53:04.131Z,8.65
2023-11-02T15:55:30.947Z,8.56
2023-11-02T15:57:57.822Z,8.57
2023-11-02T16:00:26.284Z,8.57
2023-11-02T16:02:52.991Z,8.50
2023-11-02T16:05:20.242Z,8.52
2023-11-02T16:07:46.847Z,8.61
2023-11-02T16:10:15.191Z,8.56
2023-11-02T16:12:42.119Z,8.53
2023-11-02T16:15:10.728Z,8.51
2023-11-02T16:17:37.533Z,8.48
2023-11-02T16:20:08.284Z,8.55
2023-11-02T16:22:34.812Z,8.65
2023-11-02T16:25:01.502Z,8.62
2023-11-02T16:27:28.685Z,8.63
2023-11-02T16:29:55.187Z,8.65
2023-11-02T16:32:21.684Z,8.63
2023-11-02T16:34:58.220Z,8.55
2023-11-02T16:37:30.950Z,8.56
2023-11-02T16:39:57.513Z,8.55
2023-11-02T16:42:24.093Z,8.55
2023-11-02T16:44:50.999Z,8.41
2023-11-02T16:47:17.556Z,8.46
2023-11-02T16:49:44.078Z,8.40
2023-11-02T16:52:10.650Z,8.39
2023-11-02T16:54:37.396Z,8.43
2023-11-02T16:57:04.390Z,8.44
2023-11-02T16:59:30.909Z,8.43
2023-11-02T17:01:57.368Z,8.42
2023-11-02T17:04:24.018Z,8.41
2023-11-02T17:06:52.556Z,8.41
2023-11-02T17:09:21.632Z,8.38
2023-11-02T17:11:48.169Z,8.42
2023-11-02T17:14:14.727Z,8.38
2023-11-02T17:16:43.753Z,8.39
2023-11-02T17:19:13.585Z,8.35
2023-11-02T17:21:40.333Z,8.34
2023-11-02T17:24:07.440Z,8.38
2023-11-02T17:26:33.920Z,8.37
2023-11-02T17:29:00.827Z,8.36
2023-11-02T17:31:28.712Z,8.35
2023-11-02T17:33:55.207Z,8.38
2023-11-02T17:36:21.920Z,8.36
2023-11-02T17:38:48.649Z,8.37
2023-11-02T17:41:15.302Z,8.38
2023-11-02T17:43:43.019Z,8.36
2023-11-02T17:46:09.587Z,8.35
2023-11-02T17:48:36.216Z,8.32
2023-11-02T17:51:04.256Z,8.32
2023-11-02T17:53:30.801Z,8.34
2023-11-02T17:55:57.330Z,8.35
2023-11-02T17:58:28.852Z,8.30
2023-11-02T18:00:56.865Z,8.29
2023-11-02T18:03:23.566Z,8.30
2023-11-02T18:05:50.066Z,8.27
2023-11-02T18:08:17.325Z,8.23
2023-11-02T18:10:43.884Z,8.28
2023-11-02T18:13:10.408Z,8.36
2023-11-02T18:15:37.278Z,8.30
2023-11-02T18:18:04.092Z,8.32
2023-11-02T18:20:32.816Z,8.32
2023-11-02T18:22:59.630Z,8.30
2023-11-02T18:25:26.312Z,8.29
2023-11-02T18:27:52.893Z,8.25
2023-11-02T18:30:19.401Z,8.31
2023-11-02T18:32:45.966Z,8.28
2023-11-02T18:35:13.083Z,8.30
2023-11-02T18:37:39.626Z,8.28
2023-11-02T18:40:06.856Z,8.30
2023-11-02T18:42:34.945Z,8.29
2023-11-02T18:45:06.050Z,8.30
2023-11-02T18:47:34.824Z,8.29
2023-11-02T18:50:02.328Z,8.28
2023-11-02T18:52:29.025Z,8.28
2023-11-02T18:54:57.877Z,8.22
2023-11-02T18:57:26.183Z,8.27
2023-11-02T18:59:53.024Z,8.27
2023-11-02T19:02:21.955Z,8.24
2023-11-02T19:04:48.932Z,8.20
2023-11-02T19:07:16.279Z,8.20
2023-11-02T19:09:45.546Z,8.20
2023-11-02T19:12:12.696Z,8.16
2023-11-02T19:14:40.538Z,8.14
2023-11-02T19:17:07.183Z,8.14
2023-11-02T19:19:33.997Z,8.17
2023-11-02T19:22:01.203Z,8.14
2023-11-02T19:24:28.045Z,8.13
2023-11-02T19:26:54.533Z,8.17
2023-11-02T19:29:21.042Z,8.16
2023-11-02T19:31:50.857Z,8.09
2023-11-02T19:34:18.689Z,8.06
2023-11-02T19:36:47.626Z,8.15
2023-11-02T19:39:15.951Z,8.15
2023-11-02T19:41:44.703Z,8.09
2023-11-02T19:44:11.970Z,8.08
2023-11-02T19:46:45.228Z,8.08
2023-11-02T19:49:13.235Z,8.06
2023-11-02T19:51:40.629Z,8.07
2023-11-02T19:54:10.208Z,8.08
2023-11-02T19:56:40.812Z,8.08
2023-11-02T19:59:11.041Z,8.14
2023-11-02T20:01:38.378Z,8.08
2023-11-02T20:04:05.381Z,8.14
2023-11-02T20:06:33.643Z,8.03
2023-11-02T20:09:00.613Z,7.99
2023-11-02T20:11:27.443Z,8.02
2023-11-02T20:13:54.551Z,8.07
2023-11-02T20:16:21.158Z,8.08
2023-11-02T20:18:48.446Z,8.09
2023-11-02T20:21:15.147Z,8.02
2023-11-02T20:23:41.802Z,8.05
2023-11-02T20:26:08.377Z,8.00
2023-11-02T20:28:35.090Z,7.97
2023-11-02T20:31:01.638Z,7.96
2023-11-02T20:33:28.247Z,7.93
2023-11-02T20:35:54.806Z,7.97
2023-11-02T20:38:21.313Z,7.93
2023-11-02T20:40:47.873Z,7.92
2023-11-02T20:43:17.136Z,7.93
2023-11-02T20:45:44.330Z,7.90
2023-11-02T20:48:10.884Z,7.91
2023-11-02T20:50:40.359Z,8.02
2023-11-02T20:53:08.238Z,8.14
2023-11-02T20:55:34.698Z,8.00
2023-11-02T20:58:01.327Z,7.89
2023-11-02T21:00:30.470Z,7.84
2023-11-02T21:02:58.889Z,7.85
2023-11-02T21:05:27.153Z,7.81
2023-11-02T21:07:54.552Z,7.80
2023-11-02T21:10:21.055Z,7.75
2023-11-02T21:12:47.848Z,7.77
2023-11-02T21:15:14.412Z,7.78
2023-11-02T21:17:40.958Z,7.77
2023-11-02T21:20:08.476Z,7.71
2023-11-02T21:22:36.685Z,7.70
2023-11-02T21:25:03.473Z,7.68
2023-11-02T21:27:30.063Z,7.73
2023-11-02T21:29:56.849Z,7.71
2023-11-02T21:32:23.581Z,7.67
2023-11-02T21:34:50.105Z,7.63
2023-11-02T21:37:16.615Z,7.62
2023-11-02T21:39:43.242Z,7.62
2023-11-02T21:42:10.808Z,7.62
2023-11-02T21:44:37.598Z,7.77
2023-11-02T21:47:06.948Z,7.69
2023-11-02T21:49:33.721Z,7.67
2023-11-02T21:52:00.972Z,7.65
2023-11-02T21:54:27.547Z,7.65
2023-11-02T21:56:54.531Z,7.70
2023-11-02T21:59:21.842Z,7.74
2023-11-02T22:01:48.548Z,7.71
2023-11-02T22:04:15.790Z,7.71
2023-11-02T22:06:46.758Z,7.68
2023-11-02T22:09:13.733Z,7.73
2023-11-02T22:11:40.660Z,7.77
2023-11-02T22:14:07.255Z,7.80
2023-11-02T22:16:33.810Z,7.78
2023-11-02T22:19:00.773Z,7.78
2023-11-02T22:21:27.466Z,7.69
2023-11-02T22:23:54.048Z,7.65
2023-11-02T22:26:24.419Z,7.70
2023-11-02T22:28:54.225Z,7.63
2023-11-02T22:31:24.754Z,7.60
2023-11-02T22:33:51.407Z,7.57
2023-11-02T22:36:17.958Z,7.56
2023-11-02T22:38:45.038Z,7.58
2023-11-02T22:41:12.467Z,7.58
2023-11-02T22:43:39.750Z,7.59
2023-11-02T22:46:07.937Z,7.58
2023-11-02T22:48:39.897Z,7.63
2023-11-02T22:51:07.402Z,7.62
2023-11-02T22:53:36.768Z,7.55
2023-11-02T22:56:10.610Z,7.51
2023-11-02T22:58:37.344Z,7.47
2023-11-02T23:01:05.570Z,7.48
2023-11-02T23:03:34.354Z,7.46
2023-11-02T23:06:01.225Z,7.43
2023-11-02T23:08:29.278Z,7.40
2023-11-02T23:10:56.442Z,7.39
2023-11-02T23:13:23.480Z,7.40
2023-11-02T23:15:50.532Z,7.39
2023-11-02T23:18:17.485Z,7.40
2023-11-02T23:20:44.584Z,7.41
2023-11-02T23:23:12.681Z,7.39
2023-11-02T23:25:40.047Z,7.49
2023-11-02T23:28:06.839Z,7.42
2023-11-02T23:30:33.721Z,7.34
2023-11-02T23:33:00.348Z,7.32
2023-11-02T23:35:26.889Z,7.30
2023-11-02T23:37:54.217Z,7.31
2023-11-02T23:40:21.126Z,7.28
2023-11-02T23:42:49.016Z,7.25
2023-11-02T23:45:19.087Z,7.25
2023-11-02T23:47:50.162Z,7.24
2023-11-02T23:50:18.011Z,7.21
2023-11-02T23:52:46.847Z,7.21
2023-11-02T23:55:14.551Z,7.20
2023-11-02T23:57:41.613Z,7.15
